Terminal Aerodrome Forecast
Issued by NWS Mt. Holly, NJ

Home | Current Version | Previous Version | Text Only | Print | Product List | Glossary On
Versions: 1 2 3 4 5 6 7 8 9 10 11 12 13 14 15 16 17 18 19 20 21 22 23 24 25 26 27 28 29 30 31 32 33 34 35 36 37 38 39 40 41 42
000
FTAK31 PANC 302342
TAFABE
TAF
PABE 302342Z 0100/0124 11015KT P6SM VCSH SCT030 OVC060
     FM010300 12017G24KT P6SM SCT050 OVC090
     FM010900 12025G35KT P6SM -RA SCT025 OVC040 WS020/14055KT
     FM011200 12025G38KT 6SM -RA BKN025 OVC040 WS020/14055KT
     FM012100 15025G35KT 6SM -RA OVC025=

USA.gov is the U.S. government's official web portal to all federal, state and local government web resources and services.